This demonstration page uses our WeatherBlox Daily Observations layout. Learn more.

38.89511, -77.03637

Hourly Observations for June 26, 2015

Temp ( °F °C ) Dew Point ( °F °C ) Humidity (%) Winds ( mph kmh ) Pressure ( in mb ) Visibility ( mi km ) Precip ( " mm )
12:52 am 00:52 Cloudy 72 22 66 19 83 83 NNE 9 15 29.94 1014 10 16.09344 0 0
1:52 am 01:52 Cloudy 72 22 64 18 78 78 NNE 7 11 29.91 1013 10 16.09344 0 0
2:52 am 02:52 Cloudy 72 22 64 18 78 78 NNE 5 7 29.91 1013 10 16.09344 0 0
3:52 am 03:52 Cloudy 72 22 64 18 78 78 NNW 9 15 29.91 1013 10 16.09344 0 0
4:52 am 04:52 Cloudy 70 21 64 18 83 83 NNW 10 17 29.94 1014 10 16.09344 0 0
5:33 am 05:33 Cloudy 70 21 64 18 83 83 NW 7 11 29.94 1014 10 16.09344 0 0
5:52 am 05:52 Cloudy 70 21 64 18 83 83 W 7 11 29.94 1014 10 16.09344 0 0
6:52 am 06:52 Cloudy 70 21 64 18 83 83 NNW 12 19 29.97 1015 10 16.09344 0 0
7:23 am 07:23 Cloudy 70 21 64 18 83 83 NNW 9 15 29.97 1015 10 16.09344 0 0
7:46 am 07:46 Cloudy 72 22 64 18 78 78 N 10 17 29.97 1015 10 16.09344 0 0
7:52 am 07:52 Cloudy 72 22 64 18 78 78 N 10 17 29.97 1015 10 16.09344 0 0
8:52 am 08:52 Mostly Cloudy 73 23 64 18 74 74 NE 5 7 29.97 1015 10 16.09344 0 0
9:52 am 09:52 Cloudy 75 24 64 18 69 69 NNW 9 15 30 1016 10 16.09344 0 0
10:12 am 10:12 Mostly Cloudy 75 24 64 18 69 69 NNW 7 11 30 1016 10 16.09344 0 0
10:42 am 10:42 Cloudy 79 26 64 18 61 61 Calm 30 1016 10 16.09344 0 0
10:52 am 10:52 Cloudy 77 25 64 18 65 65 NNE 5 7 30 1016 10 16.09344 0 0
11:31 am 11:31 Cloudy 77 25 64 18 65 65 ENE 3 6 30 1016 10 16.09344 0 0
11:52 am 11:52 Cloudy 77 25 64 18 65 65 E 3 6 30 1016 10 16.09344 0 0
12:52 pm 12:52 Cloudy 79 26 64 18 61 61 E 3 6 29.97 1015 10 16.09344 0 0
1:52 pm 13:52 Cloudy 81 27 64 18 58 58 ENE 7 11 29.97 1015 10 16.09344 0 0
2:23 pm 14:23 Cloudy 81 27 64 18 58 58 NE 8 13 29.97 1015 10 16.09344 0 0
2:52 pm 14:52 Cloudy 81 27 64 18 58 58 Calm 29.97 1015 10 16.09344 0 0
3:20 pm 15:20 Cloudy 81 27 64 18 58 58 N 3 6 30 1016 10 16.09344 0 0
3:52 pm 15:52 Cloudy 81 27 63 17 54 54 Calm 30 1016 10 16.09344 0 0
4:52 pm 16:52 Cloudy 81 27 64 18 58 58 ESE 6 9 30 1016 10 16.09344 0 0
5:06 pm 17:06 Cloudy 81 27 66 19 62 62 SE 3 6 30 1016 10 16.09344 0 0
5:52 pm 17:52 Mostly Cloudy 81 27 64 18 58 58 NE 6 9 30 1016 10 16.09344 0 0
6:52 pm 18:52 Mostly Cloudy 81 27 66 19 62 62 E 7 11 30 1016 10 16.09344 0 0
7:52 pm 19:52 Mostly Cloudy 79 26 64 18 61 61 E 8 13 30 1016 10 16.09344 0 0
8:52 pm 20:52 Mostly Cloudy 77 25 64 18 65 65 SE 7 11 30 1016 10 16.09344 0 0
9:52 pm 21:52 Mostly Cloudy 75 24 66 19 74 74 SE 5 7 30.03 1017 10 16.09344 0 0
10:52 pm 22:52 Cloudy 75 24 64 18 69 69 SE 3 6 30.03 1017 10 16.09344 0 0
11:52 pm 23:52 Cloudy 75 24 66 19 74 74 SE 5 7 30.03 1017 10 16.09344 0 0

Powered by AerisWeather